createdAt,value
2019-02-27T00:00:39.316Z,58.74
2019-02-27T00:01:49.699Z,58.76
2019-02-27T00:02:53.746Z,58.80
2019-02-27T00:04:02.511Z,58.81
2019-02-27T00:05:08.405Z,58.80
2019-02-27T00:06:15.881Z,58.82
2019-02-27T00:07:21.084Z,58.87
2019-02-27T00:08:27.525Z,58.95
2019-02-27T00:09:34.345Z,58.98
2019-02-27T00:10:41.212Z,58.96
2019-02-27T00:11:48.188Z,58.98
2019-02-27T00:12:55.124Z,58.95
2019-02-27T00:14:01.953Z,58.91
2019-02-27T00:15:08.776Z,59.03
2019-02-27T00:16:15.648Z,59.10
2019-02-27T00:17:22.463Z,59.18
2019-02-27T00:18:29.909Z,59.14
2019-02-27T00:19:36.188Z,59.28
2019-02-27T00:20:43.120Z,59.35
2019-02-27T00:21:50.092Z,59.44
2019-02-27T00:22:56.854Z,59.45
2019-02-27T00:24:03.767Z,59.42
2019-02-27T00:25:10.565Z,59.47
2019-02-27T00:26:17.917Z,59.45
2019-02-27T00:27:24.186Z,59.46
2019-02-27T00:28:31.021Z,59.47
2019-02-27T00:29:37.775Z,59.46
2019-02-27T00:30:44.531Z,59.50
2019-02-27T00:31:51.302Z,59.53
2019-02-27T00:32:58.206Z,59.55
2019-02-27T00:34:05.047Z,59.56
2019-02-27T00:35:11.787Z,59.61
2019-02-27T00:36:18.557Z,59.65
2019-02-27T00:37:25.392Z,59.70
2019-02-27T00:38:32.083Z,59.71
2019-02-27T00:39:38.805Z,59.71
2019-02-27T00:40:45.607Z,59.70
2019-02-27T00:41:52.473Z,59.72
2019-02-27T00:42:59.342Z,59.80
2019-02-27T00:44:06.084Z,59.82
2019-02-27T00:45:12.814Z,59.89
2019-02-27T00:46:19.682Z,59.97
2019-02-27T00:47:26.512Z,60.10
2019-02-27T00:48:33.397Z,60.17
2019-02-27T00:49:40.360Z,60.23
2019-02-27T00:50:47.205Z,60.25
2019-02-27T00:51:54.092Z,60.28
2019-02-27T00:53:00.836Z,60.27
2019-02-27T00:54:07.566Z,60.30
2019-02-27T00:55:14.376Z,60.29
2019-02-27T00:56:21.141Z,60.39
2019-02-27T00:57:28.001Z,60.44
2019-02-27T00:58:34.894Z,60.44
2019-02-27T00:59:41.696Z,60.44
2019-02-27T01:00:48.524Z,60.48
2019-02-27T01:01:55.328Z,60.51
2019-02-27T01:03:02.244Z,60.54
2019-02-27T01:04:09.036Z,60.54
2019-02-27T01:05:15.899Z,60.50
2019-02-27T01:06:22.641Z,60.48
2019-02-27T01:07:29.915Z,60.52
2019-02-27T01:08:36.703Z,60.61
2019-02-27T01:09:43.473Z,60.63
2019-02-27T01:10:50.306Z,60.70
2019-02-27T01:11:57.172Z,60.75
2019-02-27T01:13:03.917Z,60.73
2019-02-27T01:14:10.769Z,60.75
2019-02-27T01:15:17.612Z,60.78
2019-02-27T01:16:24.384Z,60.81
2019-02-27T01:17:31.211Z,60.79
2019-02-27T01:18:37.977Z,60.80
2019-02-27T01:19:44.798Z,60.78
2019-02-27T01:20:51.625Z,60.86
2019-02-27T01:21:58.475Z,60.93
2019-02-27T01:23:05.455Z,60.99
2019-02-27T01:24:12.216Z,61.06
2019-02-27T01:25:22.884Z,60.99
2019-02-27T01:26:30.539Z,61.02
2019-02-27T01:27:32.727Z,61.06
2019-02-27T01:28:44.643Z,61.09
2019-02-27T01:29:50.862Z,61.08
2019-02-27T01:30:57.024Z,61.12
2019-02-27T01:32:00.224Z,61.13
2019-02-27T01:33:06.974Z,61.13
2019-02-27T01:34:13.829Z,61.15
2019-02-27T01:35:20.717Z,61.16
2019-02-27T01:36:27.486Z,61.18
2019-02-27T01:37:34.331Z,61.15
2019-02-27T01:38:41.095Z,61.16
2019-02-27T01:39:47.883Z,61.17
2019-02-27T01:40:56.784Z,61.23
2019-02-27T01:42:01.592Z,61.28
2019-02-27T01:43:08.569Z,61.33
2019-02-27T01:44:15.320Z,61.36
2019-02-27T01:45:22.095Z,61.38
2019-02-27T01:46:29.273Z,61.42
2019-02-27T01:47:36.133Z,61.51
2019-02-27T01:48:43.610Z,61.59
2019-02-27T01:49:49.795Z,61.61
2019-02-27T01:50:57.495Z,61.61
2019-02-27T01:52:03.083Z,61.61
2019-02-27T01:53:09.960Z,61.57
2019-02-27T01:54:16.765Z,61.61
2019-02-27T01:55:23.561Z,61.66
2019-02-27T01:56:30.468Z,61.67
2019-02-27T01:57:37.444Z,61.70
2019-02-27T01:58:44.446Z,61.70
2019-02-27T01:59:51.049Z,61.72
2019-02-27T02:00:59.024Z,61.69
2019-02-27T02:02:04.898Z,61.72
2019-02-27T02:03:13.764Z,61.76
2019-02-27T02:04:20.267Z,61.82
2019-02-27T02:05:27.104Z,61.84
2019-02-27T02:06:33.013Z,61.84
2019-02-27T02:07:40.276Z,61.94
2019-02-27T02:08:48.272Z,61.95
2019-02-27T02:09:55.040Z,61.97
2019-02-27T02:11:01.417Z,62.07
2019-02-27T02:12:08.675Z,62.10
2019-02-27T02:13:15.143Z,62.20
2019-02-27T02:14:21.140Z,62.29
2019-02-27T02:15:27.915Z,62.28
2019-02-27T02:16:34.950Z,62.28
2019-02-27T02:17:41.682Z,62.27
2019-02-27T02:18:48.845Z,62.25
2019-02-27T02:19:55.703Z,62.25
2019-02-27T02:22:08.855Z,62.29
2019-02-27T02:23:15.078Z,62.36
2019-02-27T02:24:22.038Z,62.39
2019-02-27T02:25:28.820Z,62.40
2019-02-27T02:26:35.902Z,62.42
2019-02-27T02:27:42.677Z,62.48
2019-02-27T02:28:49.343Z,62.50
2019-02-27T02:31:07.660Z,62.54
2019-02-27T02:32:16.758Z,62.65
2019-02-27T02:33:30.304Z,62.64
2019-02-27T02:34:39.867Z,62.63
2019-02-27T02:35:41.510Z,62.62
2019-02-27T02:36:48.578Z,62.62
2019-02-27T02:37:55.408Z,62.65
2019-02-27T02:39:02.379Z,62.67
2019-02-27T02:41:18.624Z,62.71
2019-02-27T02:43:31.717Z,62.78
2019-02-27T02:44:38.568Z,62.94
2019-02-27T02:45:45.627Z,62.95
2019-02-27T02:46:52.730Z,63.01
2019-02-27T02:49:15.788Z,63.09
2019-02-27T02:50:22.362Z,63.12
2019-02-27T02:51:33.585Z,63.10
2019-02-27T02:52:41.572Z,63.08
2019-02-27T02:53:48.788Z,63.12
2019-02-27T02:54:53.863Z,63.17
2019-02-27T02:57:06.388Z,63.18
2019-02-27T02:58:13.269Z,63.30
2019-02-27T02:59:24.379Z,63.33
2019-02-27T03:00:27.056Z,63.34
2019-02-27T03:01:34.361Z,63.32
2019-02-27T03:02:41.289Z,63.34
2019-02-27T03:04:53.923Z,63.34
2019-02-27T03:06:01.331Z,63.35
2019-02-27T03:07:10.844Z,63.38
2019-02-27T03:08:19.848Z,63.38
2019-02-27T03:09:21.730Z,63.39
2019-02-27T03:10:28.174Z,63.43
2019-02-27T03:11:35.121Z,63.45
2019-02-27T03:12:42.015Z,63.48
2019-02-27T03:14:54.478Z,63.47
2019-02-27T03:16:04.779Z,63.49
2019-02-27T03:17:07.335Z,63.47
2019-02-27T03:18:14.240Z,63.48
2019-02-27T03:19:21.305Z,63.48
2019-02-27T03:20:28.458Z,63.52
2019-02-27T03:21:35.419Z,63.55
2019-02-27T03:22:42.501Z,63.62
2019-02-27T03:23:52.250Z,63.74
2019-02-27T03:26:04.045Z,63.78
2019-02-27T03:27:10.163Z,63.79
2019-02-27T03:28:17.248Z,63.83
2019-02-27T03:29:24.313Z,63.88
2019-02-27T03:30:36.321Z,63.89
2019-02-27T03:31:38.165Z,63.91
2019-02-27T03:32:45.229Z,64.02
2019-02-27T03:33:52.209Z,64.08
2019-02-27T03:34:58.957Z,64.13
2019-02-27T03:36:06.842Z,64.15
2019-02-27T03:37:13.419Z,64.09
2019-02-27T03:38:23.789Z,64.14
2019-02-27T03:39:26.555Z,64.19
2019-02-27T03:40:33.483Z,64.21
2019-02-27T03:41:40.507Z,64.18
2019-02-27T03:42:47.193Z,64.20
2019-02-27T03:43:54.326Z,64.25
2019-02-27T03:45:01.270Z,64.35
2019-02-27T03:46:09.161Z,64.36
2019-02-27T03:47:16.711Z,64.37
2019-02-27T03:48:27.458Z,64.35
2019-02-27T03:49:29.079Z,64.36
2019-02-27T03:50:36.237Z,64.39
2019-02-27T03:51:42.886Z,64.40
2019-02-27T03:52:49.646Z,64.40
2019-02-27T03:53:56.894Z,64.43
2019-02-27T03:55:03.917Z,64.48
2019-02-27T03:56:10.764Z,64.45
2019-02-27T03:57:20.259Z,64.47
2019-02-27T03:58:26.792Z,64.51
2019-02-27T03:59:32.127Z,64.60
2019-02-27T04:00:39.150Z,64.61
2019-02-27T04:01:45.926Z,64.62
2019-02-27T04:02:53.225Z,64.62
2019-02-27T04:03:59.787Z,64.68
2019-02-27T04:05:07.454Z,64.79
2019-02-27T04:07:21.709Z,64.86
2019-02-27T04:08:28.469Z,64.89
2019-02-27T04:09:35.726Z,64.89
2019-02-27T04:10:42.662Z,64.89
2019-02-27T04:11:49.590Z,64.87
2019-02-27T04:12:56.573Z,64.88
2019-02-27T04:14:05.460Z,64.87
2019-02-27T04:15:10.213Z,64.87
2019-02-27T04:16:16.856Z,64.89
2019-02-27T04:17:23.932Z,64.88
2019-02-27T04:18:30.697Z,64.92
2019-02-27T04:19:39.279Z,64.97
2019-02-27T04:20:49.673Z,65.01
2019-02-27T04:21:51.781Z,65.04
2019-02-27T04:22:58.878Z,65.04
2019-02-27T04:24:06.349Z,65.07
2019-02-27T04:25:12.721Z,65.15
2019-02-27T04:26:19.680Z,65.13
2019-02-27T04:27:26.494Z,65.17
2019-02-27T04:28:33.312Z,65.19
2019-02-27T04:29:41.238Z,65.19
2019-02-27T04:30:51.028Z,65.20
2019-02-27T04:31:58.400Z,65.19
2019-02-27T04:33:00.596Z,65.24
2019-02-27T04:34:07.867Z,65.19
2019-02-27T04:35:14.323Z,65.18
2019-02-27T04:36:21.281Z,65.18
2019-02-27T04:37:28.340Z,65.20
2019-02-27T04:38:35.239Z,65.26
2019-02-27T04:39:41.928Z,65.29
2019-02-27T04:40:49.188Z,65.31
2019-02-27T04:41:55.948Z,65.34
2019-02-27T04:43:02.981Z,65.38
2019-02-27T04:44:09.872Z,65.37
2019-02-27T04:45:16.688Z,65.38
2019-02-27T04:46:23.565Z,65.37
2019-02-27T04:47:30.386Z,65.38
2019-02-27T04:48:37.436Z,65.38
2019-02-27T04:49:44.286Z,65.39
2019-02-27T04:50:51.288Z,65.42
2019-02-27T04:51:58.124Z,65.42
2019-02-27T04:53:05.034Z,65.45
2019-02-27T04:54:11.869Z,65.51
2019-02-27T04:55:18.649Z,65.60
2019-02-27T04:56:25.722Z,65.62
2019-02-27T04:57:33.725Z,65.63
2019-02-27T04:58:42.740Z,65.60
2019-02-27T04:59:46.415Z,65.63
2019-02-27T05:00:58.904Z,65.65
2019-02-27T05:02:00.245Z,65.70
2019-02-27T05:03:07.267Z,65.74
2019-02-27T05:04:14.097Z,65.75
2019-02-27T05:05:21.056Z,65.73
2019-02-27T05:06:28.053Z,65.74
2019-02-27T05:07:35.085Z,65.77
2019-02-27T05:08:41.964Z,65.77
2019-02-27T05:09:48.836Z,65.77
2019-02-27T05:10:56.980Z,65.76
2019-02-27T05:12:02.659Z,65.78
2019-02-27T05:13:09.472Z,65.79
2019-02-27T05:14:16.233Z,65.84
2019-02-27T05:15:23.183Z,65.88
2019-02-27T05:16:30.039Z,65.87
2019-02-27T05:17:36.841Z,65.88
2019-02-27T05:18:43.890Z,65.87
2019-02-27T05:19:52.058Z,65.95
2019-02-27T05:20:58.832Z,65.92
2019-02-27T05:22:04.904Z,65.94
2019-02-27T05:23:11.758Z,65.96
2019-02-27T05:24:18.512Z,65.97
2019-02-27T05:25:25.582Z,65.99
2019-02-27T05:26:32.380Z,66.06
2019-02-27T05:27:39.228Z,66.09
2019-02-27T05:28:46.084Z,66.08
2019-02-27T05:29:52.956Z,66.09
2019-02-27T05:31:01.045Z,66.12
2019-02-27T05:32:06.918Z,66.12
2019-02-27T05:33:13.762Z,66.13
2019-02-27T05:34:20.629Z,66.16
2019-02-27T05:35:27.624Z,66.16
2019-02-27T05:36:34.801Z,66.15
2019-02-27T05:37:41.588Z,66.15
2019-02-27T05:38:48.405Z,66.17
2019-02-27T05:39:55.099Z,66.20
2019-02-27T05:41:03.582Z,66.22
2019-02-27T05:42:08.964Z,66.25
2019-02-27T05:43:15.775Z,66.27
2019-02-27T05:44:22.547Z,66.22
2019-02-27T05:45:31.166Z,66.25
2019-02-27T05:46:38.427Z,66.26
2019-02-27T05:47:45.810Z,66.33
2019-02-27T05:48:50.944Z,66.33
2019-02-27T05:49:57.983Z,66.34
2019-02-27T05:51:07.681Z,66.35
2019-02-27T05:52:11.851Z,66.35
2019-02-27T05:53:22.096Z,66.34
2019-02-27T05:54:24.644Z,66.34
2019-02-27T05:55:31.397Z,66.33
2019-02-27T05:56:38.200Z,66.35
2019-02-27T05:57:44.872Z,66.33
2019-02-27T05:58:56.109Z,66.36
2019-02-27T06:00:02.175Z,66.39
2019-02-27T06:01:06.326Z,66.44
2019-02-27T06:02:12.338Z,66.49
2019-02-27T06:03:19.490Z,66.47
2019-02-27T06:04:25.836Z,66.53
2019-02-27T06:05:33.672Z,66.59
2019-02-27T06:06:39.663Z,66.59
2019-02-27T06:07:46.473Z,66.55
2019-02-27T06:08:53.325Z,66.58
2019-02-27T06:10:00.296Z,66.63
2019-02-27T06:11:07.904Z,66.73
2019-02-27T06:12:14.233Z,66.82
2019-02-27T06:13:21.201Z,66.92
2019-02-27T06:14:27.964Z,66.99
2019-02-27T06:15:34.924Z,67.02
2019-02-27T06:16:41.789Z,67.02
2019-02-27T06:17:49.690Z,66.98
2019-02-27T06:18:56.238Z,66.95
2019-02-27T06:20:02.306Z,66.97
2019-02-27T06:21:10.008Z,67.01
2019-02-27T06:22:16.269Z,67.02
2019-02-27T06:23:23.121Z,67.07
2019-02-27T06:24:29.954Z,67.07
2019-02-27T06:25:36.836Z,67.13
2019-02-27T06:26:43.523Z,67.15
2019-02-27T06:27:50.525Z,67.16
2019-02-27T06:28:57.298Z,67.14
2019-02-27T06:30:04.252Z,67.18
2019-02-27T06:31:11.213Z,67.28
2019-02-27T06:32:17.958Z,67.33
2019-02-27T06:33:24.801Z,67.35
2019-02-27T06:34:31.569Z,67.35
2019-02-27T06:35:38.436Z,67.35
2019-02-27T06:36:45.200Z,67.35
2019-02-27T06:37:52.089Z,67.34
2019-02-27T06:39:00.311Z,67.35
2019-02-27T06:40:07.477Z,67.41
2019-02-27T06:41:15.413Z,67.45
2019-02-27T06:42:19.609Z,67.49
2019-02-27T06:43:27.391Z,67.51
2019-02-27T06:44:33.372Z,67.55
2019-02-27T06:45:40.153Z,67.58
2019-02-27T06:46:46.885Z,67.55
2019-02-27T06:47:53.800Z,67.59
2019-02-27T06:49:00.643Z,67.61
2019-02-27T06:50:07.513Z,67.62
2019-02-27T06:51:14.378Z,67.67
2019-02-27T06:52:21.262Z,67.67
2019-02-27T06:53:28.127Z,67.66
2019-02-27T06:54:35.193Z,67.73
2019-02-27T06:55:42.056Z,67.74
2019-02-27T06:56:49.009Z,67.83
2019-02-27T06:57:55.889Z,67.92
2019-02-27T06:59:02.672Z,68.00
2019-02-27T07:00:09.533Z,68.02
2019-02-27T07:01:16.088Z,68.07
2019-02-27T07:02:23.369Z,68.08
2019-02-27T07:03:32.826Z,68.07
2019-02-27T07:04:39.635Z,68.07
2019-02-27T07:05:45.583Z,68.07
2019-02-27T07:06:54.936Z,68.12
2019-02-27T07:07:57.792Z,68.12
2019-02-27T07:09:04.992Z,68.20
2019-02-27T07:10:11.292Z,68.26
2019-02-27T07:11:19.031Z,68.27
2019-02-27T07:12:25.381Z,68.28
2019-02-27T07:13:32.166Z,68.35
2019-02-27T07:14:39.835Z,68.37
2019-02-27T07:15:48.162Z,68.41
2019-02-27T07:16:56.979Z,68.46
2019-02-27T07:17:59.608Z,68.50
2019-02-27T07:19:06.604Z,68.60
2019-02-27T07:20:13.385Z,68.65
2019-02-27T07:21:20.318Z,68.68
2019-02-27T07:22:27.072Z,68.76
2019-02-27T07:23:35.265Z,68.82
2019-02-27T07:24:40.809Z,68.84
2019-02-27T07:25:47.587Z,68.90
2019-02-27T07:26:54.379Z,68.96
2019-02-27T07:28:02.903Z,69.05
2019-02-27T07:29:08.201Z,69.11
2019-02-27T07:30:14.987Z,69.18
2019-02-27T07:31:23.337Z,69.27
2019-02-27T07:32:31.409Z,69.41
2019-02-27T07:33:38.020Z,69.53
2019-02-27T07:34:42.537Z,69.62
2019-02-27T07:35:49.408Z,69.71
2019-02-27T07:36:56.176Z,69.91
2019-02-27T07:38:02.916Z,70.01
2019-02-27T07:39:09.749Z,70.12
2019-02-27T07:40:16.561Z,70.24
2019-02-27T07:41:23.518Z,70.32
2019-02-27T07:42:32.107Z,70.45
2019-02-27T07:43:37.179Z,70.54
2019-02-27T07:44:43.976Z,70.64
2019-02-27T07:45:50.984Z,70.75
2019-02-27T07:46:58.091Z,70.83
2019-02-27T07:48:04.845Z,70.95
2019-02-27T07:49:11.690Z,71.07
2019-02-27T07:50:18.645Z,71.23
2019-02-27T07:51:25.634Z,71.40
2019-02-27T07:52:32.460Z,71.54
2019-02-27T07:53:39.164Z,71.68
2019-02-27T07:54:45.948Z,71.78
2019-02-27T07:55:52.850Z,71.90
2019-02-27T07:56:59.662Z,72.03
2019-02-27T07:58:06.525Z,72.19
2019-02-27T07:59:13.309Z,72.33
2019-02-27T08:00:20.264Z,72.47
2019-02-27T08:01:27.244Z,72.64
2019-02-27T08:02:36.209Z,72.82
2019-02-27T08:03:44.784Z,73.06
2019-02-27T08:04:47.893Z,73.27
2019-02-27T08:05:54.557Z,73.44
2019-02-27T08:07:01.279Z,73.64
2019-02-27T08:08:08.263Z,73.84
2019-02-27T08:09:15.155Z,74.03
2019-02-27T08:10:22.205Z,74.18
2019-02-27T08:11:29.029Z,74.38
2019-02-27T08:12:35.945Z,74.53
2019-02-27T08:13:42.805Z,74.68
2019-02-27T08:14:49.825Z,74.83
2019-02-27T08:15:57.985Z,74.99
2019-02-27T08:17:10.213Z,75.17
2019-02-27T08:18:10.627Z,75.30
2019-02-27T08:19:17.337Z,75.43
2019-02-27T08:20:24.244Z,75.54
2019-02-27T08:21:30.980Z,75.69
2019-02-27T08:22:37.828Z,75.79
2019-02-27T08:23:44.658Z,75.94
2019-02-27T08:24:51.525Z,76.07
2019-02-27T08:25:58.427Z,76.24
2019-02-27T08:27:07.114Z,76.40
2019-02-27T08:28:12.236Z,76.55
2019-02-27T08:29:19.230Z,76.76
2019-02-27T08:30:26.046Z,76.88
2019-02-27T08:31:32.964Z,77.01
2019-02-27T08:32:39.850Z,77.16
2019-02-27T08:33:47.006Z,77.29
2019-02-27T08:34:53.801Z,77.45
2019-02-27T08:36:00.504Z,77.58
2019-02-27T08:37:07.374Z,77.73
2019-02-27T08:38:14.178Z,77.87
2019-02-27T08:39:21.141Z,77.97
2019-02-27T08:40:27.948Z,78.12
2019-02-27T08:41:34.991Z,78.25
2019-02-27T08:42:41.841Z,78.39
2019-02-27T08:43:48.908Z,78.51
2019-02-27T08:44:55.780Z,78.67
2019-02-27T08:46:03.177Z,78.79
2019-02-27T08:47:10.312Z,78.93
2019-02-27T08:48:17.557Z,79.10
2019-02-27T08:49:24.950Z,79.27
2019-02-27T08:50:31.660Z,79.44
2019-02-27T08:51:39.785Z,79.59
2019-02-27T08:52:44.594Z,79.74
2019-02-27T08:53:51.230Z,79.95
2019-02-27T08:54:58.013Z,80.12
2019-02-27T08:56:04.986Z,80.26
2019-02-27T08:57:11.844Z,80.43
2019-02-27T08:58:18.604Z,80.61
2019-02-27T08:59:25.379Z,80.80
2019-02-27T09:00:32.149Z,80.96
2019-02-27T09:01:39.449Z,81.12
2019-02-27T09:02:46.409Z,81.32
2019-02-27T09:03:53.244Z,81.48
2019-02-27T09:05:00.014Z,81.66
2019-02-27T09:06:06.999Z,81.87
2019-02-27T09:07:13.763Z,82.09
2019-02-27T09:08:20.546Z,82.34
2019-02-27T09:09:28.036Z,82.54
2019-02-27T09:10:34.557Z,82.73
2019-02-27T09:11:41.556Z,82.86
2019-02-27T09:12:49.499Z,83.00
2019-02-27T09:13:55.289Z,83.17
2019-02-27T09:15:01.935Z,83.39
2019-02-27T09:16:08.848Z,83.61
2019-02-27T09:17:15.651Z,83.81
2019-02-27T09:18:23.048Z,84.04
2019-02-27T09:19:29.287Z,84.25
2019-02-27T09:20:36.291Z,84.44
2019-02-27T09:21:43.159Z,84.63
2019-02-27T09:22:50.137Z,84.80
2019-02-27T09:23:57.092Z,84.94
2019-02-27T09:25:04.364Z,85.05
2019-02-27T09:26:11.034Z,85.18
2019-02-27T09:27:17.797Z,85.33
2019-02-27T09:28:24.641Z,85.44
2019-02-27T09:29:31.401Z,85.57
2019-02-27T09:30:38.273Z,85.68
2019-02-27T09:31:50.797Z,85.79
2019-02-27T09:32:51.984Z,85.96
2019-02-27T09:33:58.828Z,86.11
2019-02-27T09:35:05.741Z,86.25
2019-02-27T09:36:12.820Z,86.38
2019-02-27T09:37:20.009Z,86.53
2019-02-27T09:38:26.861Z,86.64
2019-02-27T09:39:35.149Z,86.78
2019-02-27T09:40:40.338Z,86.88
2019-02-27T09:41:47.122Z,86.99
2019-02-27T09:42:54.101Z,87.13
2019-02-27T09:44:01.356Z,87.26
2019-02-27T09:45:08.298Z,87.39
2019-02-27T09:46:19.246Z,87.49
2019-02-27T09:47:23.151Z,87.63
2019-02-27T09:48:31.132Z,87.74
2019-02-27T09:49:38.040Z,87.82
2019-02-27T09:50:47.639Z,87.92
2019-02-27T09:51:49.681Z,88.02
2019-02-27T09:52:56.480Z,88.15
2019-02-27T09:54:03.310Z,88.27
2019-02-27T09:55:10.176Z,88.41
2019-02-27T09:56:16.796Z,88.55
2019-02-27T09:57:24.137Z,88.69
2019-02-27T09:58:30.864Z,88.79
2019-02-27T09:59:37.780Z,88.86
2019-02-27T10:00:44.508Z,88.91
2019-02-27T10:01:51.343Z,89.05
2019-02-27T10:02:58.306Z,89.10
2019-02-27T10:04:05.141Z,89.22
2019-02-27T10:05:12.493Z,89.28
2019-02-27T10:06:18.968Z,89.31
2019-02-27T10:07:25.810Z,89.31
2019-02-27T10:08:32.805Z,89.30
2019-02-27T10:09:43.156Z,89.34
2019-02-27T10:10:46.620Z,89.38
2019-02-27T10:11:54.203Z,89.42
2019-02-27T10:13:03.390Z,89.52
2019-02-27T10:14:07.651Z,89.54
2019-02-27T10:15:14.590Z,89.54
2019-02-27T10:16:21.681Z,89.54
2019-02-27T10:17:28.638Z,89.49
2019-02-27T10:18:35.542Z,89.42
2019-02-27T10:19:42.334Z,89.37
2019-02-27T10:20:49.268Z,89.36
2019-02-27T10:21:56.135Z,89.37
2019-02-27T10:23:03.121Z,89.40
2019-02-27T10:24:10.089Z,89.32
2019-02-27T10:25:16.777Z,89.26
2019-02-27T10:26:23.713Z,89.11
2019-02-27T10:27:30.473Z,88.89
2019-02-27T10:28:39.624Z,88.78
2019-02-27T10:29:47.769Z,88.66
2019-02-27T10:30:51.204Z,88.49
2019-02-27T10:31:58.238Z,88.34
2019-02-27T10:33:04.976Z,88.14
2019-02-27T10:34:11.792Z,87.97
2019-02-27T10:35:18.752Z,87.79
2019-02-27T10:36:25.610Z,87.57
2019-02-27T10:37:32.292Z,87.34
2019-02-27T10:38:40.393Z,87.13
2019-02-27T10:39:45.963Z,86.91
2019-02-27T10:40:52.816Z,86.74
2019-02-27T10:41:59.736Z,86.60
2019-02-27T10:43:06.817Z,86.36
2019-02-27T10:44:13.904Z,86.34
2019-02-27T10:45:20.850Z,86.32
2019-02-27T10:46:27.774Z,86.17
2019-02-27T10:47:36.526Z,86.10
2019-02-27T10:48:41.492Z,86.33
2019-02-27T10:49:48.837Z,86.28
2019-02-27T10:50:55.249Z,86.25
2019-02-27T10:52:02.107Z,86.27
2019-02-27T10:53:08.976Z,86.34
2019-02-27T10:54:15.709Z,86.24
2019-02-27T10:55:22.585Z,85.81
2019-02-27T10:56:29.413Z,85.81
2019-02-27T10:57:38.398Z,85.96
2019-02-27T10:58:45.014Z,85.66
2019-02-27T10:59:50.433Z,85.19
2019-02-27T11:00:58.062Z,84.56
2019-02-27T11:02:04.412Z,83.84
2019-02-27T11:03:11.232Z,83.44
2019-02-27T11:04:18.077Z,83.25
2019-02-27T11:05:24.973Z,82.61
2019-02-27T11:06:34.192Z,82.20
2019-02-27T11:07:38.493Z,82.21
2019-02-27T11:08:45.411Z,82.21
2019-02-27T11:09:52.672Z,81.74
2019-02-27T11:10:59.220Z,81.52
2019-02-27T11:12:06.502Z,81.48
2019-02-27T11:13:13.474Z,81.04
2019-02-27T11:14:19.984Z,81.04
2019-02-27T11:15:27.102Z,80.59
2019-02-27T11:16:33.961Z,79.85
2019-02-27T11:17:40.884Z,79.28
2019-02-27T11:18:47.545Z,79.02
2019-02-27T11:19:54.448Z,78.56
2019-02-27T11:21:01.637Z,78.10
2019-02-27T11:22:07.959Z,77.54
2019-02-27T11:23:14.865Z,76.73
2019-02-27T11:24:21.784Z,76.17
2019-02-27T11:25:28.706Z,75.43
2019-02-27T11:26:35.659Z,75.07
2019-02-27T11:27:42.440Z,74.51
2019-02-27T11:28:49.399Z,74.04
2019-02-27T11:29:59.285Z,73.23
2019-02-27T11:31:03.042Z,73.01
2019-02-27T11:32:09.986Z,72.76
2019-02-27T11:33:25.698Z,72.89
2019-02-27T11:34:23.630Z,72.11
2019-02-27T11:35:30.418Z,71.61
2019-02-27T11:36:39.082Z,71.49
2019-02-27T11:37:46.878Z,71.32
2019-02-27T11:38:51.348Z,71.40
2019-02-27T11:39:58.075Z,71.47
2019-02-27T11:41:05.104Z,70.82
2019-02-27T11:42:12.035Z,70.60
2019-02-27T11:43:18.985Z,70.56
2019-02-27T11:44:25.858Z,70.59
2019-02-27T11:45:32.683Z,70.16
2019-02-27T11:46:39.596Z,70.10
2019-02-27T11:47:48.120Z,69.54
2019-02-27T11:48:53.568Z,69.12
2019-02-27T11:50:01.043Z,68.92
2019-02-27T11:51:07.909Z,69.07
2019-02-27T11:52:14.969Z,68.29
2019-02-27T11:53:22.137Z,67.37
2019-02-27T11:54:29.010Z,66.70
2019-02-27T11:55:35.984Z,66.32
2019-02-27T11:56:42.941Z,65.80
2019-02-27T11:57:49.911Z,65.97
2019-02-27T11:58:56.772Z,66.13
2019-02-27T12:00:03.657Z,65.41
2019-02-27T12:01:12.135Z,65.05
2019-02-27T12:02:17.280Z,65.22
2019-02-27T12:03:24.254Z,64.74
2019-02-27T12:04:30.982Z,64.55
2019-02-27T12:05:38.006Z,63.53
2019-02-27T12:06:44.950Z,63.15
2019-02-27T12:07:52.638Z,62.51
2019-02-27T12:08:59.812Z,62.84
2019-02-27T12:10:06.670Z,61.91
2019-02-27T12:11:14.216Z,61.51
2019-02-27T12:12:22.606Z,61.18
2019-02-27T12:13:26.368Z,60.91
2019-02-27T12:14:33.131Z,61.16
2019-02-27T12:15:43.328Z,60.78
2019-02-27T12:16:51.375Z,60.53
2019-02-27T12:17:53.943Z,59.80
2019-02-27T12:19:01.213Z,59.61
2019-02-27T12:20:07.676Z,59.40
2019-02-27T12:21:14.843Z,59.30
2019-02-27T12:22:22.649Z,58.82
2019-02-27T12:23:28.593Z,58.47
2019-02-27T12:24:35.649Z,57.97
2019-02-27T12:25:42.757Z,57.88
2019-02-27T12:26:49.789Z,57.65
2019-02-27T12:27:56.664Z,57.69
2019-02-27T12:29:03.589Z,57.39
2019-02-27T12:30:10.613Z,56.77
2019-02-27T12:31:17.685Z,55.77
2019-02-27T12:32:24.557Z,56.15
2019-02-27T12:33:31.204Z,55.51
2019-02-27T12:34:38.568Z,55.54
2019-02-27T12:35:45.588Z,55.03
2019-02-27T12:36:53.209Z,54.77
2019-02-27T12:37:59.407Z,54.63
2019-02-27T12:39:06.511Z,55.11
2019-02-27T12:40:13.380Z,54.66
2019-02-27T12:41:20.843Z,53.77
2019-02-27T12:42:36.787Z,52.92
2019-02-27T12:43:34.221Z,52.99
2019-02-27T12:44:42.160Z,52.92
2019-02-27T12:45:48.061Z,52.56
2019-02-27T12:46:55.072Z,51.75
2019-02-27T12:48:02.633Z,51.84
2019-02-27T12:49:09.226Z,51.84
2019-02-27T12:50:16.050Z,51.50
2019-02-27T12:51:22.721Z,51.38
2019-02-27T12:52:29.468Z,51.90
2019-02-27T12:53:36.553Z,51.74
2019-02-27T12:54:43.425Z,51.48
2019-02-27T12:55:50.221Z,51.65
2019-02-27T12:56:57.074Z,51.13
2019-02-27T12:58:04.148Z,50.60
2019-02-27T12:59:10.990Z,50.77
2019-02-27T13:00:17.956Z,51.08
2019-02-27T13:01:25.167Z,50.47
2019-02-27T13:02:35.597Z,50.23
2019-02-27T13:03:42.245Z,50.05
2019-02-27T13:04:45.754Z,49.88
2019-02-27T13:05:52.590Z,49.29
2019-02-27T13:06:59.396Z,49.77
2019-02-27T13:08:06.339Z,49.33
2019-02-27T13:09:13.156Z,49.34
2019-02-27T13:10:20.389Z,49.42
2019-02-27T13:11:26.961Z,48.97
2019-02-27T13:12:33.889Z,49.35
2019-02-27T13:13:40.697Z,48.85
2019-02-27T13:14:47.637Z,48.71
2019-02-27T13:15:54.529Z,48.65
2019-02-27T13:17:01.284Z,48.66
2019-02-27T13:18:08.375Z,48.79
2019-02-27T13:19:16.476Z,48.23
2019-02-27T13:20:22.595Z,48.71
2019-02-27T13:21:29.411Z,48.91
2019-02-27T13:22:36.542Z,49.24
2019-02-27T13:23:43.512Z,49.25
2019-02-27T13:24:50.954Z,49.08
2019-02-27T13:26:00.422Z,48.94
2019-02-27T13:27:09.068Z,48.43
2019-02-27T13:28:14.570Z,48.14
2019-02-27T13:29:20.602Z,48.65
2019-02-27T13:30:25.677Z,48.11
2019-02-27T13:31:32.629Z,48.35
2019-02-27T13:32:39.613Z,47.61
2019-02-27T13:33:46.503Z,47.14
2019-02-27T13:34:53.453Z,47.56
2019-02-27T13:36:00.450Z,47.40
2019-02-27T13:37:10.047Z,47.56
2019-02-27T13:38:17.702Z,47.72
2019-02-27T13:39:25.364Z,47.81
2019-02-27T13:40:28.085Z,47.53
2019-02-27T13:41:35.251Z,47.36
2019-02-27T13:42:42.536Z,46.87
2019-02-27T13:43:48.962Z,46.92
2019-02-27T13:44:55.842Z,46.83
2019-02-27T13:46:02.653Z,46.46
2019-02-27T13:47:09.620Z,45.89
2019-02-27T13:48:16.328Z,45.51
2019-02-27T13:49:25.918Z,45.16
2019-02-27T13:50:29.869Z,45.20
2019-02-27T13:51:39.576Z,45.06
2019-02-27T13:52:44.515Z,44.65
2019-02-27T13:53:50.977Z,44.50
2019-02-27T13:54:58.058Z,44.55
2019-02-27T13:56:04.949Z,44.08
2019-02-27T13:57:11.763Z,43.68
2019-02-27T13:58:18.913Z,43.51
2019-02-27T13:59:25.714Z,43.60
2019-02-27T14:00:32.408Z,43.60
2019-02-27T14:01:39.307Z,43.22
2019-02-27T14:02:46.129Z,43.07
2019-02-27T14:03:52.984Z,43.27
2019-02-27T14:05:00.771Z,43.11
2019-02-27T14:06:09.337Z,42.68
2019-02-27T14:07:13.906Z,42.93
2019-02-27T14:08:20.791Z,42.80
2019-02-27T14:09:27.629Z,42.68
2019-02-27T14:10:34.702Z,42.61
2019-02-27T14:11:41.496Z,42.83
2019-02-27T14:12:48.761Z,42.94
2019-02-27T14:13:55.606Z,43.22
2019-02-27T14:15:02.370Z,43.37
2019-02-27T14:16:09.476Z,43.42
2019-02-27T14:17:16.297Z,43.07
2019-02-27T14:18:23.117Z,42.77
2019-02-27T14:19:30.049Z,42.54
2019-02-27T14:20:36.880Z,42.42
2019-02-27T14:21:43.681Z,42.50
2019-02-27T14:22:50.582Z,42.57
2019-02-27T14:23:57.641Z,42.31
2019-02-27T14:25:04.697Z,41.90
2019-02-27T14:26:11.262Z,42.10
2019-02-27T14:27:18.232Z,42.20
2019-02-27T14:28:25.047Z,42.32
2019-02-27T14:29:31.807Z,42.27
2019-02-27T14:30:38.592Z,42.29
2019-02-27T14:31:45.806Z,42.31
2019-02-27T14:32:52.799Z,42.11